createdAt,value
2023-03-13T00:01:16.674Z,91.29
2023-03-13T00:03:43.336Z,91.50
2023-03-13T00:06:11.740Z,91.58
2023-03-13T00:08:38.999Z,92.14
2023-03-13T00:11:08.665Z,90.96
2023-03-13T00:13:35.392Z,91.15
2023-03-13T00:16:07.363Z,91.51
2023-03-13T00:18:34.340Z,90.76
2023-03-13T00:21:14.246Z,91.23
2023-03-13T00:23:40.950Z,91.17
2023-03-13T00:26:13.504Z,89.17
2023-03-13T00:28:41.557Z,87.77
2023-03-13T00:31:32.113Z,89.02
2023-03-13T00:34:04.618Z,87.35
2023-03-13T00:36:34.031Z,86.83
2023-03-13T00:39:01.150Z,83.91
2023-03-13T00:41:30.107Z,82.83
2023-03-13T00:46:26.933Z,81.19
2023-03-13T00:48:54.194Z,81.45
2023-03-13T00:51:22.217Z,80.92
2023-03-13T00:53:48.882Z,82.04
2023-03-13T00:56:20.690Z,80.30
2023-03-13T00:58:48.742Z,80.83
2023-03-13T01:01:24.883Z,80.79
2023-03-13T01:03:54.327Z,79.69
2023-03-13T01:06:24.339Z,78.12
2023-03-13T01:08:51.775Z,77.26
2023-03-13T01:11:27.686Z,77.80
2023-03-13T01:13:59.551Z,78.57
2023-03-13T01:16:27.549Z,78.99
2023-03-13T01:18:56.469Z,80.00
2023-03-13T01:21:25.136Z,79.02
2023-03-13T01:23:52.978Z,78.67
2023-03-13T01:26:21.411Z,78.12
2023-03-13T01:28:48.672Z,79.13
2023-03-13T01:31:30.273Z,78.68
2023-03-13T01:33:59.486Z,78.37
2023-03-13T01:36:27.347Z,78.34
2023-03-13T01:38:57.042Z,78.49
2023-03-13T01:41:24.943Z,77.95
2023-03-13T01:43:51.822Z,76.81
2023-03-13T01:46:25.340Z,76.54
2023-03-13T01:48:58.653Z,77.38
2023-03-13T01:51:46.058Z,76.86
2023-03-13T01:54:20.681Z,76.48
2023-03-13T01:56:50.808Z,77.04
2023-03-13T01:59:22.646Z,77.45
2023-03-13T02:01:51.242Z,76.74
2023-03-13T02:04:20.145Z,77.04
2023-03-13T02:06:50.640Z,76.68
2023-03-13T02:09:24.683Z,77.61
2023-03-13T02:14:28.197Z,77.11
2023-03-13T02:16:56.331Z,77.38
2023-03-13T02:19:45.642Z,77.60
2023-03-13T02:22:32.496Z,77.98
2023-03-13T02:25:20.950Z,78.93
2023-03-13T02:27:48.611Z,79.24
2023-03-13T02:30:15.959Z,79.04
2023-03-13T02:32:43.930Z,79.29
2023-03-13T02:35:14.426Z,79.14
2023-03-13T02:37:50.065Z,80.00
2023-03-13T02:40:24.488Z,80.97
2023-03-13T02:42:53.756Z,81.02
2023-03-13T02:45:20.493Z,81.70
2023-03-13T02:47:47.187Z,82.38
2023-03-13T02:50:14.779Z,81.80
2023-03-13T02:52:51.469Z,82.49
2023-03-13T02:55:24.954Z,83.20
2023-03-13T02:57:51.950Z,83.16
2023-03-13T03:00:19.054Z,82.79
2023-03-13T03:02:45.889Z,83.58
2023-03-13T03:05:13.855Z,83.13
2023-03-13T03:07:40.559Z,83.39
2023-03-13T03:10:07.874Z,82.77
2023-03-13T03:12:34.859Z,82.26
2023-03-13T03:15:01.652Z,82.13
2023-03-13T03:17:28.328Z,81.58
2023-03-13T03:19:55.048Z,81.60
2023-03-13T03:22:21.943Z,82.88
2023-03-13T03:24:48.810Z,82.63
2023-03-13T03:27:15.628Z,82.97
2023-03-13T03:29:42.301Z,84.12
2023-03-13T03:32:09.056Z,85.79
2023-03-13T03:34:39.631Z,88.62
2023-03-13T03:37:06.377Z,88.11
2023-03-13T03:39:42.578Z,85.68
2023-03-13T03:42:10.020Z,88.01
2023-03-13T03:44:36.693Z,86.14
2023-03-13T03:47:03.385Z,90.57
2023-03-13T03:49:31.082Z,91.39
2023-03-13T03:54:24.726Z,90.46
2023-03-13T03:56:51.357Z,91.44
2023-03-13T03:59:18.113Z,93.04
2023-03-13T04:01:45.431Z,94.59
2023-03-13T04:04:16.186Z,94.29
2023-03-13T04:06:43.040Z,94.59
2023-03-13T04:09:09.848Z,95.88
2023-03-13T04:11:36.504Z,96.41
2023-03-13T04:14:03.229Z,95.70
2023-03-13T04:16:30.168Z,97.86
2023-03-13T04:18:56.805Z,95.95
2023-03-13T04:21:23.782Z,97.48
2023-03-13T04:23:50.469Z,97.81
2023-03-13T04:26:17.192Z,97.89
2023-03-13T04:28:43.878Z,97.83
2023-03-13T04:31:10.613Z,98.58
2023-03-13T04:33:37.517Z,97.83
2023-03-13T04:36:05.068Z,97.09
2023-03-13T04:38:31.766Z,96.79
2023-03-13T04:43:24.788Z,94.18
2023-03-13T04:45:55.295Z,94.07
2023-03-13T04:48:24.841Z,98.04
2023-03-13T04:50:51.811Z,97.32
2023-03-13T04:53:18.498Z,95.52
2023-03-13T04:55:45.524Z,97.13
2023-03-13T04:58:12.219Z,98.45
2023-03-13T05:00:41.300Z,97.96
2023-03-13T05:03:08.025Z,98.73
2023-03-13T05:05:35.569Z,96.36
2023-03-13T05:08:02.701Z,97.32
2023-03-13T05:10:29.433Z,97.95
2023-03-13T05:12:56.381Z,97.42
2023-03-13T05:15:23.270Z,98.18
2023-03-13T05:17:49.892Z,99.31
2023-03-13T05:20:19.794Z,98.59
2023-03-13T05:22:46.523Z,98.56
2023-03-13T05:25:13.262Z,99.71
2023-03-13T05:27:40.205Z,100.00
2023-03-13T05:30:08.315Z,99.41
2023-03-13T05:32:35.129Z,100.00
2023-03-13T05:35:02.055Z,100.00
2023-03-13T05:37:28.969Z,99.69
2023-03-13T05:39:55.779Z,99.35
2023-03-13T05:42:22.590Z,100.00
2023-03-13T05:44:49.292Z,99.99
2023-03-13T05:47:19.305Z,98.46
2023-03-13T05:49:46.146Z,99.54
2023-03-13T05:52:12.795Z,99.87
2023-03-13T05:54:40.965Z,99.96
2023-03-13T05:57:07.690Z,99.11
2023-03-13T05:59:34.462Z,98.38
2023-03-13T06:02:01.158Z,98.33
2023-03-13T06:04:27.834Z,99.92
2023-03-13T06:06:55.740Z,100.00
2023-03-13T06:09:22.532Z,100.00
2023-03-13T06:11:49.506Z,100.00
2023-03-13T06:14:16.212Z,100.00
2023-03-13T06:16:42.924Z,100.00
2023-03-13T06:19:09.678Z,100.00
2023-03-13T06:21:36.622Z,100.00
2023-03-13T06:24:03.376Z,100.00
2023-03-13T06:26:30.290Z,100.00
2023-03-13T06:28:56.951Z,100.00
2023-03-13T06:31:23.773Z,100.00
2023-03-13T06:33:56.713Z,100.00
2023-03-13T06:36:24.746Z,100.00
2023-03-13T06:38:51.562Z,100.00
2023-03-13T06:41:18.282Z,100.00
2023-03-13T06:43:45.036Z,100.00
2023-03-13T06:46:30.313Z,99.50
2023-03-13T06:51:26.516Z,99.93
2023-03-13T06:53:53.411Z,99.39
2023-03-13T06:56:23.104Z,97.78
2023-03-13T06:58:50.699Z,96.84
2023-03-13T07:01:19.225Z,96.33
2023-03-13T07:03:50.419Z,96.69
2023-03-13T07:06:18.644Z,95.08
2023-03-13T07:08:46.095Z,94.47
2023-03-13T07:11:15.497Z,94.72
2023-03-13T07:13:42.366Z,93.69
2023-03-13T07:16:12.608Z,93.67
2023-03-13T07:18:42.098Z,93.82
2023-03-13T07:21:10.392Z,93.97
2023-03-13T07:23:38.814Z,93.95
2023-03-13T07:26:08.482Z,94.18
2023-03-13T07:28:37.761Z,94.17
2023-03-13T07:31:11.822Z,94.20
2023-03-13T07:33:38.844Z,94.23
2023-03-13T07:36:06.397Z,94.63
2023-03-13T07:38:33.349Z,94.47
2023-03-13T07:41:00.195Z,93.70
2023-03-13T07:43:27.398Z,93.73
2023-03-13T07:45:59.767Z,93.38
2023-03-13T07:48:30.512Z,93.31
2023-03-13T07:53:25.229Z,92.80
2023-03-13T07:55:59.669Z,93.00
2023-03-13T07:58:29.378Z,92.89
2023-03-13T08:00:56.892Z,92.43
2023-03-13T08:03:24.529Z,92.08
2023-03-13T08:05:58.779Z,91.70
2023-03-13T08:08:25.550Z,91.37
2023-03-13T08:10:52.254Z,90.95
2023-03-13T08:13:18.945Z,91.11
2023-03-13T08:15:45.578Z,90.64
2023-03-13T08:18:12.420Z,91.57
2023-03-13T08:20:39.344Z,91.20
2023-03-13T08:23:06.039Z,91.17
2023-03-13T08:25:33.448Z,90.77
2023-03-13T08:28:02.354Z,90.94
2023-03-13T08:30:29.351Z,90.36
2023-03-13T08:32:56.015Z,90.32
2023-03-13T08:35:22.798Z,90.41
2023-03-13T08:37:49.441Z,89.73
2023-03-13T08:40:16.245Z,89.88
2023-03-13T08:42:42.937Z,89.81
2023-03-13T08:45:10.048Z,89.34
2023-03-13T08:47:36.864Z,89.14
2023-03-13T08:50:03.890Z,88.95
2023-03-13T08:52:30.819Z,89.44
2023-03-13T08:54:57.456Z,89.28
2023-03-13T08:57:24.320Z,89.58
2023-03-13T08:59:51.650Z,89.05
2023-03-13T09:02:21.021Z,88.99
2023-03-13T09:04:48.773Z,89.26
2023-03-13T09:07:16.874Z,88.46
2023-03-13T09:09:44.606Z,88.36
2023-03-13T09:12:24.744Z,87.98
2023-03-13T09:14:56.639Z,87.58
2023-03-13T09:17:23.313Z,87.24
2023-03-13T09:19:59.748Z,87.83
2023-03-13T09:22:24.078Z,87.38
2023-03-13T09:24:50.729Z,87.84
2023-03-13T09:27:17.376Z,87.52
2023-03-13T09:29:44.199Z,87.70
2023-03-13T09:32:11.462Z,87.85
2023-03-13T09:34:38.428Z,88.86
2023-03-13T09:37:05.172Z,89.32
2023-03-13T09:39:32.983Z,87.88
2023-03-13T09:42:07.790Z,88.35
2023-03-13T09:44:44.309Z,87.62
2023-03-13T09:47:41.227Z,87.32
2023-03-13T09:50:34.764Z,86.42
2023-03-13T09:53:14.769Z,86.56
2023-03-13T09:55:45.824Z,85.74
2023-03-13T09:58:24.847Z,85.52
2023-03-13T10:00:57.249Z,84.61
2023-03-13T10:03:29.449Z,84.63
2023-03-13T10:05:59.781Z,83.79
2023-03-13T10:08:36.634Z,83.71
2023-03-13T10:11:26.097Z,83.64
2023-03-13T10:14:00.216Z,83.69
2023-03-13T10:16:47.735Z,82.85
2023-03-13T10:19:18.877Z,83.25
2023-03-13T10:21:50.352Z,82.96
2023-03-13T10:24:55.622Z,82.68
2023-03-13T10:27:22.341Z,82.21
2023-03-13T10:29:49.060Z,81.65
2023-03-13T10:32:17.819Z,82.42
2023-03-13T10:37:29.125Z,82.28
2023-03-13T10:39:59.770Z,81.84
2023-03-13T10:42:36.999Z,80.11
2023-03-13T10:45:09.693Z,77.96
2023-03-13T10:47:37.891Z,75.86
2023-03-13T10:50:04.978Z,74.99
2023-03-13T10:52:43.709Z,73.71
2023-03-13T10:55:24.896Z,73.76
2023-03-13T10:58:00.161Z,72.37
2023-03-13T11:00:39.106Z,70.37
2023-03-13T11:03:14.405Z,70.15
2023-03-13T11:05:45.279Z,68.75
2023-03-13T11:08:30.808Z,67.62
2023-03-13T11:10:59.046Z,67.45
2023-03-13T11:13:38.244Z,67.04
2023-03-13T11:16:13.839Z,63.40
2023-03-13T11:18:49.387Z,62.67
2023-03-13T11:21:28.758Z,64.49
2023-03-13T11:24:02.367Z,64.78
2023-03-13T11:26:31.907Z,67.51
2023-03-13T11:28:59.845Z,66.41
2023-03-13T11:31:42.071Z,65.45
2023-03-13T11:34:33.528Z,67.23
2023-03-13T11:37:12.524Z,67.81
2023-03-13T11:39:52.697Z,68.03
2023-03-13T11:42:46.347Z,66.82
2023-03-13T11:45:21.824Z,67.47
2023-03-13T11:47:59.861Z,67.05
2023-03-13T11:50:35.825Z,59.28
2023-03-13T11:53:20.766Z,57.28
2023-03-13T11:55:58.953Z,57.26
2023-03-13T11:58:54.093Z,55.22
2023-03-13T12:01:26.362Z,53.01
2023-03-13T12:04:00.199Z,50.99
2023-03-13T12:06:47.851Z,53.25
2023-03-13T12:09:19.699Z,52.26
2023-03-13T12:11:59.828Z,50.27
2023-03-13T12:14:42.316Z,52.18
2023-03-13T12:17:33.065Z,53.00
2023-03-13T12:20:20.268Z,55.01
2023-03-13T12:23:00.016Z,51.02
2023-03-13T12:25:55.258Z,53.76
2023-03-13T12:28:35.407Z,51.50
2023-03-13T12:31:08.037Z,51.32
2023-03-13T12:33:35.013Z,47.19
2023-03-13T12:36:41.700Z,48.01
2023-03-13T12:39:08.327Z,47.23
2023-03-13T12:41:48.024Z,49.30
2023-03-13T12:44:19.553Z,46.83
2023-03-13T12:46:49.017Z,47.62
2023-03-13T12:49:39.340Z,45.59
2023-03-13T12:52:40.575Z,45.61
2023-03-13T12:55:45.629Z,42.76
2023-03-13T12:58:27.173Z,43.10
2023-03-13T13:04:03.512Z,43.90
2023-03-13T13:06:59.999Z,43.92
2023-03-13T13:09:34.315Z,45.13
2023-03-13T13:12:04.477Z,45.70
2023-03-13T13:14:34.524Z,46.90
2023-03-13T13:17:16.741Z,48.63
2023-03-13T13:19:47.824Z,48.94
2023-03-13T13:22:36.854Z,49.19
2023-03-13T13:25:28.673Z,49.72
2023-03-13T13:27:56.152Z,49.55
2023-03-13T13:30:23.958Z,50.87
2023-03-13T13:32:55.566Z,51.94
2023-03-13T13:35:27.043Z,52.06
2023-03-13T13:37:59.980Z,50.32
2023-03-13T13:40:32.075Z,51.96
2023-03-13T13:43:05.707Z,51.71
2023-03-13T13:45:36.421Z,53.73
2023-03-13T13:48:20.005Z,52.77
2023-03-13T13:51:00.101Z,52.43
2023-03-13T13:53:42.829Z,52.60
2023-03-13T13:56:28.468Z,53.20
2023-03-13T13:58:59.933Z,52.04
2023-03-13T14:01:26.855Z,51.69
2023-03-13T14:04:02.812Z,48.02
2023-03-13T14:06:36.165Z,47.26
2023-03-13T14:09:17.156Z,50.45
2023-03-13T14:11:46.744Z,51.06
2023-03-13T14:14:13.407Z,49.70
2023-03-13T14:16:46.524Z,50.93
2023-03-13T14:19:34.156Z,47.24
2023-03-13T14:22:07.162Z,46.52
2023-03-13T14:24:34.354Z,43.19
2023-03-13T14:27:01.360Z,40.65
2023-03-13T14:29:28.484Z,42.20
2023-03-13T14:31:59.076Z,40.88
2023-03-13T14:34:29.754Z,38.05
2023-03-13T14:37:16.850Z,38.02
2023-03-13T14:39:46.102Z,38.77
2023-03-13T14:42:15.208Z,37.40
2023-03-13T14:44:44.194Z,38.00
2023-03-13T14:47:30.934Z,35.94
2023-03-13T14:50:02.926Z,39.23
2023-03-13T14:52:32.005Z,38.28
2023-03-13T14:55:02.539Z,38.62
2023-03-13T14:57:30.502Z,38.23
2023-03-13T14:59:59.988Z,37.05
2023-03-13T15:02:29.804Z,38.97
2023-03-13T15:05:00.421Z,39.49
2023-03-13T15:07:48.285Z,39.45
2023-03-13T15:10:41.506Z,39.45
2023-03-13T15:13:24.827Z,38.72
2023-03-13T15:15:53.229Z,37.60
2023-03-13T15:18:25.815Z,37.07
2023-03-13T15:20:59.119Z,38.18
2023-03-13T15:23:26.389Z,40.70
2023-03-13T15:25:53.057Z,37.21
2023-03-13T15:28:23.201Z,38.57
2023-03-13T15:30:52.216Z,36.42
2023-03-13T15:33:21.946Z,36.87
2023-03-13T15:35:50.458Z,36.24
2023-03-13T15:38:26.198Z,37.83
2023-03-13T15:40:53.399Z,37.76
2023-03-13T15:43:21.704Z,37.25
2023-03-13T15:45:53.842Z,34.82
2023-03-13T15:48:28.645Z,35.83
2023-03-13T15:53:27.840Z,35.75
2023-03-13T15:55:56.059Z,39.20
2023-03-13T15:58:23.460Z,40.66
2023-03-13T16:00:50.328Z,43.04
2023-03-13T16:03:22.850Z,45.98
2023-03-13T16:05:49.585Z,47.37
2023-03-13T16:08:34.608Z,47.98
2023-03-13T16:11:02.432Z,47.41
2023-03-13T16:13:29.238Z,48.30
2023-03-13T16:15:56.809Z,48.99
2023-03-13T16:18:24.889Z,49.78
2023-03-13T16:20:52.937Z,50.66
2023-03-13T16:23:19.761Z,51.03
2023-03-13T16:25:48.797Z,51.22
2023-03-13T16:28:16.124Z,51.78
2023-03-13T16:30:48.085Z,52.00
2023-03-13T16:33:17.876Z,53.13
2023-03-13T16:35:45.240Z,52.83
2023-03-13T16:38:12.007Z,53.67
2023-03-13T16:40:38.858Z,54.09
2023-03-13T16:43:05.860Z,54.07
2023-03-13T16:45:32.960Z,54.90
2023-03-13T16:47:59.651Z,55.37
2023-03-13T16:50:32.518Z,55.19
2023-03-13T16:53:00.029Z,55.11
2023-03-13T16:55:31.645Z,55.48
2023-03-13T16:57:59.165Z,54.01
2023-03-13T17:00:30.654Z,53.41
2023-03-13T17:05:26.591Z,59.30
2023-03-13T17:07:53.619Z,61.19
2023-03-13T17:10:25.104Z,63.66
2023-03-13T17:12:52.082Z,66.05
2023-03-13T17:15:20.512Z,66.91
2023-03-13T17:17:52.070Z,68.34
2023-03-13T17:20:24.801Z,70.71
2023-03-13T17:22:52.113Z,72.19
2023-03-13T17:25:19.552Z,74.79
2023-03-13T17:27:48.655Z,80.52
2023-03-13T17:30:26.338Z,82.40
2023-03-13T17:32:53.891Z,83.15
2023-03-13T17:35:21.222Z,89.33
2023-03-13T17:37:48.489Z,93.80
2023-03-13T17:40:24.441Z,95.96
2023-03-13T17:42:55.324Z,96.19
2023-03-13T17:45:22.125Z,99.48
2023-03-13T17:47:54.115Z,100.00
2023-03-13T17:50:26.554Z,100.00
2023-03-13T17:52:54.708Z,100.00
2023-03-13T17:55:25.133Z,100.00
2023-03-13T17:57:53.479Z,100.00
2023-03-13T18:00:29.276Z,100.00
2023-03-13T18:02:56.488Z,100.00
2023-03-13T18:05:23.234Z,100.00
2023-03-13T18:07:50.729Z,100.00
2023-03-13T18:10:29.005Z,100.00
2023-03-13T18:12:56.570Z,100.00
2023-03-13T18:15:25.450Z,100.00
2023-03-13T18:17:52.762Z,100.00
2023-03-13T18:20:28.132Z,100.00
2023-03-13T18:23:00.263Z,100.00
2023-03-13T18:25:28.620Z,100.00
2023-03-13T18:27:55.942Z,100.00
2023-03-13T18:30:24.923Z,100.00
2023-03-13T18:32:51.849Z,100.00
2023-03-13T18:35:19.107Z,100.00
2023-03-13T18:37:47.799Z,98.75
2023-03-13T18:40:26.927Z,99.92
2023-03-13T18:42:56.876Z,100.00
2023-03-13T18:45:26.588Z,100.00
2023-03-13T18:47:54.161Z,100.00
2023-03-13T18:50:27.531Z,100.00
2023-03-13T18:52:56.580Z,100.00
2023-03-13T18:55:25.212Z,100.00
2023-03-13T18:57:52.857Z,100.00
2023-03-13T19:00:25.613Z,100.00
2023-03-13T19:02:53.257Z,100.00
2023-03-13T19:05:20.884Z,100.00
2023-03-13T19:07:47.795Z,100.00
2023-03-13T19:10:27.210Z,100.00
2023-03-13T19:12:56.140Z,100.00
2023-03-13T19:15:26.471Z,100.00
2023-03-13T19:17:56.453Z,100.00
2023-03-13T19:20:24.495Z,100.00
2023-03-13T19:22:51.300Z,100.00
2023-03-13T19:25:22.590Z,100.00
2023-03-13T19:27:49.918Z,100.00
2023-03-13T19:30:25.208Z,100.00
2023-03-13T19:32:52.625Z,100.00
2023-03-13T19:35:22.353Z,100.00
2023-03-13T19:37:49.840Z,100.00
2023-03-13T19:40:29.007Z,100.00
2023-03-13T19:42:55.708Z,100.00
2023-03-13T19:45:22.441Z,100.00
2023-03-13T19:47:49.605Z,100.00
2023-03-13T19:50:27.829Z,100.00
2023-03-13T19:52:55.200Z,100.00
2023-03-13T19:55:24.823Z,100.00
2023-03-13T19:57:51.608Z,100.00
2023-03-13T20:00:23.627Z,100.00
2023-03-13T20:02:52.400Z,100.00
2023-03-13T20:05:19.289Z,100.00
2023-03-13T20:07:46.781Z,100.00
2023-03-13T20:10:13.568Z,100.00
2023-03-13T20:12:40.746Z,100.00
2023-03-13T20:15:10.566Z,100.00
2023-03-13T20:17:37.541Z,100.00
2023-03-13T20:20:08.572Z,100.00
2023-03-13T20:22:37.696Z,100.00
2023-03-13T20:25:04.946Z,100.00
2023-03-13T20:27:31.727Z,100.00
2023-03-13T20:32:25.298Z,100.00
2023-03-13T20:34:52.376Z,100.00
2023-03-13T20:37:19.058Z,100.00
2023-03-13T20:39:45.773Z,100.00
2023-03-13T20:42:13.237Z,100.00
2023-03-13T20:44:41.030Z,100.00
2023-03-13T20:47:07.689Z,100.00
2023-03-13T20:49:34.792Z,100.00
2023-03-13T20:52:01.521Z,100.00
2023-03-13T20:54:28.413Z,100.00
2023-03-13T20:56:56.047Z,100.00
2023-03-13T20:59:23.580Z,100.00
2023-03-13T21:01:50.280Z,100.00
2023-03-13T21:04:17.209Z,100.00
2023-03-13T21:06:47.026Z,100.00
2023-03-13T21:09:14.259Z,100.00
2023-03-13T21:11:40.927Z,100.00
2023-03-13T21:14:07.715Z,100.00
2023-03-13T21:16:34.418Z,100.00
2023-03-13T21:19:01.539Z,100.00
2023-03-13T21:21:29.439Z,100.00
2023-03-13T21:23:56.156Z,100.00
2023-03-13T21:26:23.411Z,100.00
2023-03-13T21:28:51.200Z,100.00
2023-03-13T21:31:19.543Z,100.00
2023-03-13T21:33:47.299Z,100.00
2023-03-13T21:36:16.162Z,100.00
2023-03-13T21:38:43.473Z,100.00
2023-03-13T21:41:13.049Z,100.00
2023-03-13T21:43:43.672Z,100.00
2023-03-13T21:46:12.301Z,100.00
2023-03-13T21:48:40.351Z,100.00
2023-03-13T21:51:08.078Z,100.00
2023-03-13T21:53:41.925Z,100.00
2023-03-13T21:56:09.531Z,100.00
2023-03-13T21:58:36.193Z,100.00
2023-03-13T22:01:02.957Z,100.00
2023-03-13T22:03:35.923Z,100.00
2023-03-13T22:06:02.749Z,100.00
2023-03-13T22:08:29.521Z,100.00
2023-03-13T22:13:25.158Z,100.00
2023-03-13T22:15:52.916Z,100.00
2023-03-13T22:18:19.989Z,100.00
2023-03-13T22:20:46.661Z,100.00
2023-03-13T22:23:13.702Z,100.00
2023-03-13T22:25:42.593Z,100.00
2023-03-13T22:28:10.820Z,100.00
2023-03-13T22:30:38.960Z,100.00
2023-03-13T22:33:07.278Z,100.00
2023-03-13T22:35:35.363Z,100.00
2023-03-13T22:38:02.100Z,100.00
2023-03-13T22:40:28.866Z,100.00
2023-03-13T22:42:55.782Z,100.00
2023-03-13T22:45:23.315Z,100.00
2023-03-13T22:47:50.259Z,100.00
2023-03-13T22:50:17.980Z,100.00
2023-03-13T22:52:44.806Z,100.00
2023-03-13T22:55:11.557Z,100.00
2023-03-13T22:57:38.924Z,100.00
2023-03-13T23:00:07.768Z,100.00
2023-03-13T23:02:34.739Z,100.00
2023-03-13T23:05:01.509Z,100.00
2023-03-13T23:07:29.907Z,100.00
2023-03-13T23:12:25.757Z,100.00
2023-03-13T23:14:53.290Z,100.00
2023-03-13T23:17:21.095Z,100.00
2023-03-13T23:19:47.819Z,100.00
2023-03-13T23:22:18.278Z,100.00
2023-03-13T23:24:45.193Z,100.00
2023-03-13T23:27:12.221Z,100.00
2023-03-13T23:29:39.262Z,100.00
2023-03-13T23:32:06.716Z,100.00
2023-03-13T23:34:35.975Z,100.00
2023-03-13T23:37:02.798Z,100.00
2023-03-13T23:39:29.980Z,100.00
2023-03-13T23:41:56.827Z,100.00
2023-03-13T23:44:23.724Z,100.00
2023-03-13T23:46:50.466Z,100.00
2023-03-13T23:49:17.134Z,100.00
2023-03-13T23:51:43.819Z,100.00
2023-03-13T23:54:10.467Z,100.00
2023-03-13T23:56:37.217Z,100.00
2023-03-13T23:59:03.895Z,100.00
